createdAt,value
2023-03-15T00:01:46.408Z,2.73
2023-03-15T00:04:13.878Z,2.53
2023-03-15T00:06:40.850Z,4.13
2023-03-15T00:09:07.594Z,3.15
2023-03-15T00:11:34.240Z,3.03
2023-03-15T00:14:02.331Z,2.47
2023-03-15T00:16:29.331Z,3.33
2023-03-15T00:18:57.205Z,3.73
2023-03-15T00:21:24.060Z,3.03
2023-03-15T00:23:51.129Z,4.10
2023-03-15T00:26:18.189Z,3.57
2023-03-15T00:28:44.934Z,4.87
2023-03-15T00:31:17.511Z,3.80
2023-03-15T00:33:45.651Z,4.50
2023-03-15T00:36:12.933Z,4.57
2023-03-15T00:38:41.227Z,4.38
2023-03-15T00:41:12.909Z,5.80
2023-03-15T00:43:40.813Z,4.27
2023-03-15T00:46:08.142Z,5.17
2023-03-15T00:48:38.268Z,4.83
2023-03-15T00:51:09.725Z,4.40
2023-03-15T00:53:39.320Z,4.40
2023-03-15T00:56:12.688Z,4.80
2023-03-15T00:58:39.642Z,5.23
2023-03-15T01:01:08.052Z,5.30
2023-03-15T01:03:37.744Z,6.47
2023-03-15T01:06:25.238Z,5.17
2023-03-15T01:08:52.515Z,5.80
2023-03-15T01:11:24.049Z,5.40
2023-03-15T01:13:56.035Z,5.37
2023-03-15T01:16:23.405Z,5.20
2023-03-15T01:18:51.610Z,6.20
2023-03-15T01:21:21.191Z,7.50
2023-03-15T01:23:48.048Z,6.60
2023-03-15T01:26:16.787Z,5.10
2023-03-15T01:28:44.312Z,5.73
2023-03-15T01:31:28.797Z,5.97
2023-03-15T01:33:57.112Z,6.63
2023-03-15T01:36:24.610Z,6.33
2023-03-15T01:38:51.335Z,6.40
2023-03-15T01:41:24.717Z,6.80
2023-03-15T01:43:52.125Z,6.33
2023-03-15T01:46:27.916Z,6.80
2023-03-15T01:49:16.025Z,7.00
2023-03-15T01:52:02.543Z,8.15
2023-03-15T01:54:47.043Z,7.53
2023-03-15T01:57:25.645Z,7.50
2023-03-15T01:59:58.369Z,8.47
2023-03-15T02:02:25.764Z,9.70
2023-03-15T02:04:59.675Z,9.80
2023-03-15T02:07:28.396Z,9.60
2023-03-15T02:10:10.775Z,8.70
2023-03-15T02:12:42.892Z,7.88
2023-03-15T02:15:11.462Z,9.37
2023-03-15T02:17:43.461Z,10.23
2023-03-15T02:20:16.769Z,9.73
2023-03-15T02:23:12.325Z,8.48
2023-03-15T02:26:08.085Z,9.10
2023-03-15T02:28:35.303Z,8.45
2023-03-15T02:31:02.040Z,6.23
2023-03-15T02:33:43.895Z,5.85
2023-03-15T02:36:31.861Z,4.17
2023-03-15T02:38:59.514Z,4.03
2023-03-15T02:41:39.085Z,4.07
2023-03-15T02:44:13.889Z,5.60
2023-03-15T02:46:42.402Z,5.75
2023-03-15T02:49:09.959Z,6.17
2023-03-15T02:51:36.708Z,7.13
2023-03-15T02:54:03.538Z,5.47
2023-03-15T02:56:33.359Z,4.70
2023-03-15T02:59:01.275Z,4.38
2023-03-15T03:01:28.308Z,3.22
2023-03-15T03:03:54.988Z,3.30
2023-03-15T03:06:21.999Z,3.40
2023-03-15T03:08:48.722Z,3.75
2023-03-15T03:11:18.606Z,3.65
2023-03-15T03:13:45.545Z,4.23
2023-03-15T03:16:12.505Z,3.60
2023-03-15T03:18:39.833Z,3.90
2023-03-15T03:21:08.050Z,4.65
2023-03-15T03:23:36.213Z,4.65
2023-03-15T03:26:04.382Z,5.13
2023-03-15T03:28:33.175Z,5.45
2023-03-15T03:31:01.340Z,4.40
2023-03-15T03:33:28.970Z,4.50
2023-03-15T03:36:02.063Z,4.40
2023-03-15T03:38:29.953Z,4.97
2023-03-15T03:40:59.817Z,4.20
2023-03-15T03:43:28.967Z,3.83
2023-03-15T03:45:55.847Z,4.32
2023-03-15T03:48:22.609Z,4.20
2023-03-15T03:50:50.004Z,4.57
2023-03-15T03:53:17.501Z,4.03
2023-03-15T03:55:44.224Z,4.45
2023-03-15T03:58:17.508Z,4.78
2023-03-15T04:00:54.119Z,4.50
2023-03-15T04:03:27.046Z,4.80
2023-03-15T04:05:59.596Z,5.60
2023-03-15T04:08:27.993Z,6.55
2023-03-15T04:10:57.172Z,5.30
2023-03-15T04:13:26.650Z,6.38
2023-03-15T04:15:57.467Z,6.22
2023-03-15T04:18:28.062Z,7.05
2023-03-15T04:20:56.261Z,7.45
2023-03-15T04:23:24.083Z,6.78
2023-03-15T04:26:10.129Z,6.53
2023-03-15T04:28:58.560Z,7.40
2023-03-15T04:31:44.625Z,7.78
2023-03-15T04:34:28.227Z,8.50
2023-03-15T04:37:02.195Z,8.55
2023-03-15T04:39:40.023Z,8.75
2023-03-15T04:42:28.198Z,8.63
2023-03-15T04:45:09.007Z,8.68
2023-03-15T04:47:38.516Z,8.43
2023-03-15T04:50:24.687Z,6.90
2023-03-15T04:53:10.103Z,6.47
2023-03-15T04:56:12.291Z,7.47
2023-03-15T04:58:59.327Z,7.40
2023-03-15T05:01:52.606Z,7.38
2023-03-15T05:04:29.398Z,7.07
2023-03-15T05:07:15.169Z,6.65
2023-03-15T05:09:55.074Z,7.32
2023-03-15T05:12:39.979Z,5.65
2023-03-15T05:15:25.164Z,7.05
2023-03-15T05:17:55.047Z,6.85
2023-03-15T05:20:33.589Z,7.10
2023-03-15T05:23:24.981Z,8.45
2023-03-15T05:26:01.199Z,7.07
2023-03-15T05:28:48.691Z,7.40
2023-03-15T05:31:36.784Z,7.25
2023-03-15T05:34:24.094Z,7.35
2023-03-15T05:37:07.727Z,8.98
2023-03-15T05:39:55.559Z,9.48
2023-03-15T05:42:42.770Z,10.48
2023-03-15T05:45:29.685Z,10.00
2023-03-15T05:48:07.788Z,10.80
2023-03-15T05:50:42.755Z,11.70
2023-03-15T05:53:43.273Z,12.70
2023-03-15T05:56:38.029Z,14.45
2023-03-15T05:59:16.433Z,12.48
2023-03-15T06:02:09.680Z,12.13
2023-03-15T06:04:46.889Z,16.13
2023-03-15T06:07:17.769Z,14.60
2023-03-15T06:09:45.081Z,15.95
2023-03-15T06:12:11.928Z,14.98
2023-03-15T06:14:40.001Z,16.17
2023-03-15T06:17:08.498Z,21.60
2023-03-15T06:19:37.690Z,17.67
2023-03-15T06:22:04.606Z,23.33
2023-03-15T06:24:38.549Z,20.50
2023-03-15T06:27:05.305Z,29.27
2023-03-15T06:29:34.853Z,21.92
2023-03-15T06:32:03.219Z,27.75
2023-03-15T06:34:30.324Z,19.42
2023-03-15T06:36:57.106Z,39.60
2023-03-15T06:39:23.944Z,51.80
2023-03-15T06:41:57.207Z,22.50
2023-03-15T06:44:24.799Z,25.10
2023-03-15T06:46:57.064Z,24.42
2023-03-15T06:49:23.743Z,18.85
2023-03-15T06:51:50.765Z,18.77
2023-03-15T06:54:17.937Z,17.38
2023-03-15T06:56:45.319Z,18.30
2023-03-15T06:59:12.020Z,19.20
2023-03-15T07:01:38.714Z,21.25
2023-03-15T07:04:08.202Z,44.13
2023-03-15T07:06:35.696Z,23.80
2023-03-15T07:09:04.089Z,24.20
2023-03-15T07:11:31.198Z,21.33
2023-03-15T07:13:58.520Z,23.17
2023-03-15T07:16:25.975Z,20.63
2023-03-15T07:18:55.614Z,19.45
2023-03-15T07:21:22.380Z,19.27
2023-03-15T07:23:49.623Z,20.85
2023-03-15T07:26:16.279Z,22.90
2023-03-15T07:28:44.665Z,22.23
2023-03-15T07:31:11.644Z,19.27
2023-03-15T07:33:39.377Z,20.90
2023-03-15T07:36:07.641Z,19.63
2023-03-15T07:38:35.500Z,19.23
2023-03-15T07:41:03.940Z,19.90
2023-03-15T07:43:31.106Z,18.50
2023-03-15T07:46:18.123Z,15.57
2023-03-15T07:48:44.846Z,17.20
2023-03-15T07:51:11.813Z,17.77
2023-03-15T07:53:39.076Z,17.70
2023-03-15T07:56:05.877Z,16.67
2023-03-15T07:58:32.524Z,18.10
2023-03-15T08:00:59.538Z,16.98
2023-03-15T08:03:29.157Z,16.58
2023-03-15T08:05:58.953Z,16.47
2023-03-15T08:08:26.184Z,15.97
2023-03-15T08:10:53.064Z,18.00
2023-03-15T08:13:19.747Z,17.02
2023-03-15T08:15:47.234Z,17.70
2023-03-15T08:18:14.412Z,15.50
2023-03-15T08:20:41.065Z,16.27
2023-03-15T08:23:09.068Z,15.70
2023-03-15T08:25:40.544Z,17.47
2023-03-15T08:28:07.232Z,17.13
2023-03-15T08:30:33.905Z,15.25
2023-03-15T08:33:00.686Z,16.65
2023-03-15T08:35:28.499Z,14.97
2023-03-15T08:37:55.423Z,15.60
2023-03-15T08:40:24.905Z,15.23
2023-03-15T08:42:53.248Z,14.30
2023-03-15T08:45:21.108Z,15.73
2023-03-15T08:47:47.784Z,14.43
2023-03-15T08:50:15.824Z,15.20
2023-03-15T08:52:43.439Z,14.60
2023-03-15T08:55:14.245Z,14.70
2023-03-15T08:57:42.280Z,13.10
2023-03-15T09:00:09.684Z,14.40
2023-03-15T09:02:37.291Z,13.57
2023-03-15T09:05:06.974Z,12.63
2023-03-15T09:07:34.191Z,12.73
2023-03-15T09:10:02.424Z,13.93
2023-03-15T09:12:30.772Z,13.47
2023-03-15T09:14:57.402Z,13.10
2023-03-15T09:17:24.129Z,13.40
2023-03-15T09:19:52.358Z,13.77
2023-03-15T09:22:34.678Z,12.20
2023-03-15T09:25:05.411Z,13.73
2023-03-15T09:27:32.364Z,13.60
2023-03-15T09:29:59.185Z,12.73
2023-03-15T09:32:26.410Z,15.40
2023-03-15T09:34:53.164Z,13.83
2023-03-15T09:37:21.786Z,13.30
2023-03-15T09:39:48.797Z,12.53
2023-03-15T09:42:34.345Z,12.73
2023-03-15T09:45:26.705Z,13.80
2023-03-15T09:48:09.605Z,11.47
2023-03-15T09:51:00.911Z,11.67
2023-03-15T09:53:58.623Z,10.87
2023-03-15T09:56:38.043Z,10.50
2023-03-15T09:59:06.512Z,9.60
2023-03-15T10:01:39.021Z,9.20
2023-03-15T10:04:23.536Z,7.40
2023-03-15T10:06:54.218Z,9.50
2023-03-15T10:09:23.324Z,9.20
2023-03-15T10:12:11.392Z,9.53
2023-03-15T10:14:47.390Z,9.03
2023-03-15T10:17:20.748Z,7.63
2023-03-15T10:19:51.276Z,8.03
2023-03-15T10:22:23.247Z,8.00
2023-03-15T10:24:59.154Z,8.63
2023-03-15T10:27:36.887Z,6.90
2023-03-15T10:30:39.884Z,5.67
2023-03-15T10:33:14.536Z,6.37
2023-03-15T10:35:44.268Z,6.87
2023-03-15T10:38:20.378Z,14.47
2023-03-15T10:40:53.062Z,7.80
2023-03-15T10:43:32.405Z,7.20
2023-03-15T10:46:02.132Z,6.00
2023-03-15T10:48:31.529Z,6.47
2023-03-15T10:51:03.962Z,6.10
2023-03-15T10:53:30.650Z,6.63
2023-03-15T10:56:01.336Z,5.40
2023-03-15T10:58:39.289Z,4.97
2023-03-15T11:01:24.789Z,6.50
2023-03-15T11:04:34.208Z,5.17
2023-03-15T11:07:03.818Z,5.30
2023-03-15T11:09:55.062Z,5.40
2023-03-15T11:12:30.231Z,5.90
2023-03-15T11:15:04.125Z,5.60
2023-03-15T11:17:36.113Z,4.97
2023-03-15T11:20:20.113Z,5.70
2023-03-15T11:22:47.088Z,5.87
2023-03-15T11:25:15.291Z,6.20
2023-03-15T11:27:47.053Z,5.03
2023-03-15T11:30:16.434Z,5.60
2023-03-15T11:32:44.882Z,5.43
2023-03-15T11:35:15.501Z,3.73
2023-03-15T11:38:03.175Z,4.60
2023-03-15T11:40:43.746Z,3.60
2023-03-15T11:43:32.008Z,2.80
2023-03-15T11:46:00.066Z,3.27
2023-03-15T11:48:52.528Z,5.30
2023-03-15T11:51:19.344Z,4.27
2023-03-15T11:54:04.367Z,3.87
2023-03-15T11:56:47.961Z,7.40
2023-03-15T11:59:36.598Z,4.90
2023-03-15T12:02:15.563Z,4.23
2023-03-15T12:04:44.098Z,4.50
2023-03-15T12:07:19.804Z,5.40
2023-03-15T12:10:18.346Z,6.60
2023-03-15T12:12:46.574Z,6.60
2023-03-15T12:15:19.435Z,4.90
2023-03-15T12:17:51.780Z,5.60
2023-03-15T12:20:21.906Z,4.90
2023-03-15T12:23:11.507Z,3.53
2023-03-15T12:25:54.366Z,4.33
2023-03-15T12:28:40.355Z,3.83
2023-03-15T12:31:13.033Z,3.47
2023-03-15T12:33:48.186Z,4.23
2023-03-15T12:36:39.664Z,4.10
2023-03-15T12:39:15.461Z,4.13
2023-03-15T12:41:44.340Z,3.57
2023-03-15T12:44:32.759Z,4.00
2023-03-15T12:47:01.279Z,3.30
2023-03-15T12:49:31.473Z,3.50
2023-03-15T12:52:01.250Z,11.57
2023-03-15T12:54:39.083Z,5.63
2023-03-15T12:57:06.786Z,11.60
2023-03-15T12:59:51.510Z,5.20
2023-03-15T13:02:43.318Z,18.00
2023-03-15T13:05:23.468Z,3.93
2023-03-15T13:08:06.198Z,2.97
2023-03-15T13:10:50.989Z,2.20
2023-03-15T13:13:37.873Z,3.43
2023-03-15T13:16:16.775Z,3.20
2023-03-15T13:19:06.157Z,4.73
2023-03-15T13:21:42.793Z,6.20
2023-03-15T13:24:22.229Z,4.53
2023-03-15T13:26:58.248Z,3.70
2023-03-15T13:29:32.145Z,3.20
2023-03-15T13:32:06.755Z,5.43
2023-03-15T13:34:34.159Z,2.50
2023-03-15T13:37:02.148Z,3.00
2023-03-15T13:39:34.473Z,2.50
2023-03-15T13:42:18.194Z,3.23
2023-03-15T13:44:44.959Z,2.87
2023-03-15T13:47:21.881Z,2.10
2023-03-15T13:49:52.231Z,2.30
2023-03-15T13:52:19.693Z,2.40
2023-03-15T13:54:46.594Z,3.07
2023-03-15T13:57:17.190Z,4.00
2023-03-15T13:59:50.085Z,3.70
2023-03-15T14:02:47.746Z,2.63
2023-03-15T14:05:33.585Z,2.20
2023-03-15T14:08:07.004Z,2.40
2023-03-15T14:10:36.542Z,2.80
2023-03-15T14:13:23.934Z,2.63
2023-03-15T14:15:55.636Z,2.83
2023-03-15T14:18:24.868Z,2.30
2023-03-15T14:20:59.976Z,2.13
2023-03-15T14:23:28.729Z,2.60
2023-03-15T14:26:17.392Z,2.67
2023-03-15T14:29:11.219Z,2.53
2023-03-15T14:31:46.242Z,1.60
2023-03-15T14:34:33.364Z,1.83
2023-03-15T14:37:04.258Z,1.93
2023-03-15T14:39:39.447Z,1.97
2023-03-15T14:42:09.832Z,1.90
2023-03-15T14:44:36.813Z,2.00
2023-03-15T14:47:14.258Z,1.60
2023-03-15T14:49:41.025Z,1.67
2023-03-15T14:52:08.426Z,1.90
2023-03-15T14:54:35.181Z,1.80
2023-03-15T14:57:01.829Z,1.77
2023-03-15T14:59:28.472Z,2.30
2023-03-15T15:01:58.321Z,2.50
2023-03-15T15:04:32.291Z,1.77
2023-03-15T15:06:59.422Z,2.00
2023-03-15T15:09:28.172Z,2.03
2023-03-15T15:11:55.431Z,1.83
2023-03-15T15:14:22.587Z,1.73
2023-03-15T15:16:49.864Z,1.70
2023-03-15T15:19:18.169Z,1.50
2023-03-15T15:21:45.548Z,2.20
2023-03-15T15:24:18.259Z,1.70
2023-03-15T15:26:45.351Z,1.93
2023-03-15T15:29:14.278Z,1.60
2023-03-15T15:31:41.701Z,1.20
2023-03-15T15:34:09.278Z,1.70
2023-03-15T15:36:42.063Z,1.70
2023-03-15T15:39:23.541Z,2.60
2023-03-15T15:41:50.458Z,1.53
2023-03-15T15:44:20.101Z,2.60
2023-03-15T15:46:46.754Z,1.97
2023-03-15T15:49:13.974Z,1.30
2023-03-15T15:51:46.053Z,1.30
2023-03-15T15:54:17.129Z,1.63
2023-03-15T15:56:55.773Z,4.60
2023-03-15T15:59:25.396Z,11.57
2023-03-15T16:02:00.587Z,4.97
2023-03-15T16:04:28.762Z,5.23
2023-03-15T16:07:01.350Z,5.87
2023-03-15T16:09:30.619Z,2.70
2023-03-15T16:11:58.017Z,2.27
2023-03-15T16:14:24.668Z,1.87
2023-03-15T16:16:51.468Z,2.00
2023-03-15T16:19:18.178Z,1.77
2023-03-15T16:21:48.075Z,1.70
2023-03-15T16:24:20.132Z,1.73
2023-03-15T16:26:49.697Z,2.27
2023-03-15T16:29:22.223Z,1.77
2023-03-15T16:31:49.821Z,1.63
2023-03-15T16:34:19.193Z,1.50
2023-03-15T16:36:49.347Z,1.90
2023-03-15T16:39:17.219Z,1.90
2023-03-15T16:41:43.957Z,1.50
2023-03-15T16:44:15.413Z,1.63
2023-03-15T16:46:42.408Z,2.50
2023-03-15T16:49:09.749Z,1.90
2023-03-15T16:51:39.061Z,2.10
2023-03-15T16:54:19.583Z,2.03
2023-03-15T16:56:48.812Z,2.87
2023-03-15T16:59:17.392Z,2.07
2023-03-15T17:01:49.241Z,2.20
2023-03-15T17:04:15.989Z,2.20
2023-03-15T17:06:47.090Z,2.20
2023-03-15T17:09:21.900Z,3.23
2023-03-15T17:11:50.233Z,3.30
2023-03-15T17:14:29.395Z,3.13
2023-03-15T17:16:56.341Z,2.80
2023-03-15T17:19:23.257Z,2.50
2023-03-15T17:21:51.800Z,3.27
2023-03-15T17:24:19.232Z,3.40
2023-03-15T17:26:46.364Z,3.70
2023-03-15T17:29:15.748Z,3.17
2023-03-15T17:31:44.358Z,3.13
2023-03-15T17:34:11.141Z,3.27
2023-03-15T17:36:38.004Z,3.00
2023-03-15T17:39:06.694Z,2.60
2023-03-15T17:41:36.865Z,2.93
2023-03-15T17:44:04.519Z,3.10
2023-03-15T17:46:32.966Z,3.30
2023-03-15T17:49:01.355Z,2.37
2023-03-15T17:51:31.542Z,2.63
2023-03-15T17:53:59.526Z,3.00
2023-03-15T17:56:27.526Z,2.47
2023-03-15T17:58:55.292Z,3.80
2023-03-15T18:01:26.043Z,3.00
2023-03-15T18:03:53.491Z,5.10
2023-03-15T18:06:22.011Z,4.13
2023-03-15T18:08:49.798Z,4.97
2023-03-15T18:11:31.703Z,4.57
2023-03-15T18:13:58.363Z,3.80
2023-03-15T18:16:25.142Z,4.20
2023-03-15T18:18:51.888Z,4.40
2023-03-15T18:21:25.079Z,4.63
2023-03-15T18:23:52.823Z,4.67
2023-03-15T18:26:20.311Z,5.50
2023-03-15T18:28:48.905Z,6.20
2023-03-15T18:31:19.808Z,5.63
2023-03-15T18:33:47.491Z,7.47
2023-03-15T18:36:14.219Z,6.83
2023-03-15T18:38:41.390Z,6.87
2023-03-15T18:41:24.524Z,7.33
2023-03-15T18:43:51.930Z,6.60
2023-03-15T18:46:24.473Z,8.10
2023-03-15T18:48:55.509Z,10.33
2023-03-15T18:51:28.163Z,11.57
2023-03-15T18:53:55.699Z,10.90
2023-03-15T18:56:30.640Z,8.50
2023-03-15T18:58:57.751Z,10.50
2023-03-15T19:01:24.670Z,11.00
2023-03-15T19:03:53.251Z,12.50
2023-03-15T19:06:21.452Z,15.23
2023-03-15T19:08:53.241Z,13.13
2023-03-15T19:11:21.125Z,11.00
2023-03-15T19:13:50.919Z,15.13
2023-03-15T19:16:19.285Z,17.20
2023-03-15T19:18:46.381Z,16.63
2023-03-15T19:21:13.225Z,19.03
2023-03-15T19:23:39.994Z,18.23
2023-03-15T19:26:07.139Z,16.00
2023-03-15T19:28:33.836Z,16.50
2023-03-15T19:31:00.589Z,14.30
2023-03-15T19:33:27.286Z,15.90
2023-03-15T19:35:53.975Z,17.50
2023-03-15T19:38:21.321Z,9.90
2023-03-15T19:40:48.002Z,18.13
2023-03-15T19:43:18.444Z,18.27
2023-03-15T19:45:45.155Z,19.33
2023-03-15T19:48:11.879Z,18.60
2023-03-15T19:50:38.634Z,18.50
2023-03-15T19:53:05.263Z,17.90
2023-03-15T19:55:35.413Z,18.57
2023-03-15T19:58:02.183Z,15.20
2023-03-15T20:00:28.866Z,15.43
2023-03-15T20:02:55.671Z,13.03
2023-03-15T20:05:22.595Z,14.87
2023-03-15T20:07:51.575Z,14.53
2023-03-15T20:10:19.895Z,15.33
2023-03-15T20:12:47.244Z,9.40
2023-03-15T20:15:16.542Z,11.10
2023-03-15T20:17:43.710Z,11.23
2023-03-15T20:20:13.141Z,7.17
2023-03-15T20:22:41.740Z,8.73
2023-03-15T20:25:10.426Z,5.90
2023-03-15T20:27:37.198Z,7.30
2023-03-15T20:30:05.825Z,7.27
2023-03-15T20:32:32.519Z,6.80
2023-03-15T20:35:00.589Z,8.73
2023-03-15T20:37:28.890Z,7.87
2023-03-15T20:39:55.653Z,11.40
2023-03-15T20:42:24.031Z,10.37
2023-03-15T20:44:51.233Z,6.53
2023-03-15T20:47:17.869Z,5.43
2023-03-15T20:49:44.893Z,5.60
2023-03-15T20:52:11.786Z,4.50
2023-03-15T20:54:38.426Z,5.13
2023-03-15T20:57:05.351Z,5.10
2023-03-15T20:59:32.038Z,5.23
2023-03-15T21:01:58.824Z,6.40
2023-03-15T21:04:26.082Z,5.60
2023-03-15T21:06:52.780Z,8.87
2023-03-15T21:09:19.621Z,6.80
2023-03-15T21:11:46.303Z,6.20
2023-03-15T21:14:13.371Z,5.97
2023-03-15T21:16:40.105Z,6.97
2023-03-15T21:19:06.876Z,9.10
2023-03-15T21:21:33.513Z,6.10
2023-03-15T21:24:02.037Z,6.13
2023-03-15T21:26:29.316Z,6.67
2023-03-15T21:28:56.003Z,6.05
2023-03-15T21:31:23.419Z,5.73
2023-03-15T21:33:50.991Z,5.90
2023-03-15T21:36:17.778Z,6.35
2023-03-15T21:38:44.565Z,5.43
2023-03-15T21:41:11.367Z,5.40
2023-03-15T21:43:38.437Z,7.50
2023-03-15T21:46:11.842Z,5.60
2023-03-15T21:48:38.728Z,6.10
2023-03-15T21:51:07.214Z,7.50
2023-03-15T21:53:35.304Z,6.97
2023-03-15T21:56:03.711Z,6.20
2023-03-15T21:58:30.807Z,6.93
2023-03-15T22:01:04.406Z,7.07
2023-03-15T22:03:32.252Z,7.93
2023-03-15T22:05:58.960Z,6.13
2023-03-15T22:08:26.241Z,6.50
2023-03-15T22:10:58.299Z,7.13
2023-03-15T22:13:25.941Z,6.23
2023-03-15T22:15:53.311Z,7.72
2023-03-15T22:18:20.624Z,6.83
2023-03-15T22:20:48.684Z,6.50
2023-03-15T22:23:15.340Z,6.93
2023-03-15T22:25:42.045Z,6.55
2023-03-15T22:28:08.762Z,7.43
2023-03-15T22:30:35.823Z,5.65
2023-03-15T22:33:02.644Z,6.65
2023-03-15T22:35:29.437Z,6.28
2023-03-15T22:37:59.121Z,5.53
2023-03-15T22:40:28.336Z,5.03
2023-03-15T22:42:57.079Z,5.17
2023-03-15T22:45:25.820Z,5.60
2023-03-15T22:47:52.624Z,5.15
2023-03-15T22:50:19.399Z,6.10
2023-03-15T22:52:46.100Z,6.30
2023-03-15T22:55:13.223Z,5.97
2023-03-15T22:57:40.204Z,5.70
2023-03-15T23:00:13.463Z,6.00
2023-03-15T23:02:44.110Z,5.70
2023-03-15T23:05:11.983Z,5.60
2023-03-15T23:07:38.996Z,6.33
2023-03-15T23:10:07.119Z,5.60
2023-03-15T23:12:36.448Z,5.03
2023-03-15T23:15:04.762Z,5.40
2023-03-15T23:17:31.793Z,5.70
2023-03-15T23:19:58.516Z,4.90
2023-03-15T23:22:25.684Z,6.22
2023-03-15T23:24:52.849Z,6.38
2023-03-15T23:27:19.477Z,7.10
2023-03-15T23:29:54.458Z,7.68
2023-03-15T23:32:22.807Z,6.60
2023-03-15T23:34:49.635Z,7.03
2023-03-15T23:37:16.585Z,6.00
2023-03-15T23:39:43.596Z,6.72
2023-03-15T23:42:10.382Z,7.50
2023-03-15T23:44:37.083Z,5.25
2023-03-15T23:47:05.563Z,5.60
2023-03-15T23:49:33.631Z,5.50
2023-03-15T23:52:05.188Z,4.03
2023-03-15T23:54:39.510Z,4.63
2023-03-15T23:57:07.545Z,4.50
2023-03-15T23:59:36.192Z,4.70
